sensor_id;sensor_type;location;lat;lon;timestamp;pressure;altitude;pressure_sealevel;temperature;humidity
67931;BME280;63902;52.000;5.954;2023-04-15T00:00:38;100478.16;;;7.74;61.37
67931;BME280;63902;52.000;5.954;2023-04-15T00:01:39;100431.50;;;7.50;61.59
67931;BME280;63902;52.000;5.954;2023-04-15T00:02:39;100472.28;;;7.66;61.24
67931;BME280;63902;52.000;5.954;2023-04-15T00:03:40;100485.34;;;7.71;61.58
67931;BME280;63902;52.000;5.954;2023-04-15T00:04:40;100482.75;;;7.69;61.61
67931;BME280;63902;52.000;5.954;2023-04-15T00:05:41;100480.22;;;7.66;61.37
67931;BME280;63902;52.000;5.954;2023-04-15T00:06:41;100481.25;;;7.62;62.14
67931;BME280;63902;52.000;5.954;2023-04-15T00:07:42;100471.69;;;7.58;62.36
67931;BME280;63902;52.000;5.954;2023-04-15T00:08:42;100483.06;;;7.60;61.95
67931;BME280;63902;52.000;5.954;2023-04-15T00:09:43;100476.22;;;7.54;61.84
67931;BME280;63902;52.000;5.954;2023-04-15T00:10:43;100479.72;;;7.55;62.07
67931;BME280;63902;52.000;5.954;2023-04-15T00:11:44;100479.75;;;7.53;62.52
67931;BME280;63902;52.000;5.954;2023-04-15T00:12:44;100478.03;;;7.52;62.16
67931;BME280;63902;52.000;5.954;2023-04-15T00:13:45;100474.66;;;7.49;62.18
67931;BME280;63902;52.000;5.954;2023-04-15T00:14:47;100477.34;;;7.47;62.15
67931;BME280;63902;52.000;5.954;2023-04-15T00:15:47;100475.75;;;7.42;62.42
67931;BME280;63902;52.000;5.954;2023-04-15T00:16:48;100483.75;;;7.40;62.76
67931;BME280;63902;52.000;5.954;2023-04-15T00:17:49;100482.94;;;7.38;62.96
67931;BME280;63902;52.000;5.954;2023-04-15T00:18:50;100471.50;;;7.37;62.95
67931;BME280;63902;52.000;5.954;2023-04-15T00:19:50;100453.50;;;7.24;62.64
67931;BME280;63902;52.000;5.954;2023-04-15T00:20:51;100475.84;;;7.40;62.55
67931;BME280;63902;52.000;5.954;2023-04-15T00:21:52;100481.16;;;7.38;62.67
67931;BME280;63902;52.000;5.954;2023-04-15T00:22:52;100465.72;;;7.26;62.64
67931;BME280;63902;52.000;5.954;2023-04-15T00:23:53;100476.91;;;7.34;62.94
67931;BME280;63902;52.000;5.954;2023-04-15T00:24:53;100484.81;;;7.34;62.69
67931;BME280;63902;52.000;5.954;2023-04-15T00:25:53;100487.44;;;7.34;63.63
67931;BME280;63902;52.000;5.954;2023-04-15T00:26:54;100484.81;;;7.34;63.05
67931;BME280;63902;52.000;5.954;2023-04-15T00:27:54;100480.53;;;7.30;63.05
67931;BME280;63902;52.000;5.954;2023-04-15T00:28:55;100491.09;;;7.30;63.07
67931;BME280;63902;52.000;5.954;2023-04-15T00:29:57;100491.09;;;7.30;63.07
67931;BME280;63902;52.000;5.954;2023-04-15T00:30:57;100479.06;;;7.22;63.40
67931;BME280;63902;52.000;5.954;2023-04-15T00:31:57;100457.41;;;7.12;63.17
67931;BME280;63902;52.000;5.954;2023-04-15T00:32:58;100490.44;;;7.24;63.23
67931;BME280;63902;52.000;5.954;2023-04-15T00:33:58;100480.84;;;7.21;63.67
67931;BME280;63902;52.000;5.954;2023-04-15T00:34:59;100464.59;;;7.07;63.71
67931;BME280;63902;52.000;5.954;2023-04-15T00:35:59;100487.78;;;7.24;64.04
67931;BME280;63902;52.000;5.954;2023-04-15T00:37:00;100490.44;;;7.24;63.73
67931;BME280;63902;52.000;5.954;2023-04-15T00:38:00;100489.56;;;7.23;64.39
67931;BME280;63902;52.000;5.954;2023-04-15T00:39:01;100461.75;;;7.13;63.55
67931;BME280;63902;52.000;5.954;2023-04-15T00:40:02;100488.56;;;7.27;64.24
67931;BME280;63902;52.000;5.954;2023-04-15T00:41:03;100481.66;;;7.23;64.21
67931;BME280;63902;52.000;5.954;2023-04-15T00:42:04;100489.47;;;7.26;64.49
67931;BME280;63902;52.000;5.954;2023-04-15T00:43:04;100486.03;;;7.24;64.66
67931;BME280;63902;52.000;5.954;2023-04-15T00:44:05;100481.78;;;7.20;64.16
67931;BME280;63902;52.000;5.954;2023-04-15T00:45:08;100483.44;;;7.23;63.75
67931;BME280;63902;52.000;5.954;2023-04-15T00:46:08;100461.84;;;7.11;64.80
67931;BME280;63902;52.000;5.954;2023-04-15T00:47:12;100471.31;;;7.17;64.62
67931;BME280;63902;52.000;5.954;2023-04-15T00:48:14;100472.09;;;7.19;65.06
67931;BME280;63902;52.000;5.954;2023-04-15T00:49:15;100483.28;;;7.27;64.89
67931;BME280;63902;52.000;5.954;2023-04-15T00:50:15;100483.34;;;7.26;64.57
67931;BME280;63902;52.000;5.954;2023-04-15T00:51:16;100465.31;;;7.12;64.63
67931;BME280;63902;52.000;5.954;2023-04-15T00:52:16;100479.88;;;7.24;64.85
67931;BME280;63902;52.000;5.954;2023-04-15T00:53:17;100485.16;;;7.24;64.71
67931;BME280;63902;52.000;5.954;2023-04-15T00:54:17;100461.75;;;7.13;66.10
67931;BME280;63902;52.000;5.954;2023-04-15T00:55:18;100483.34;;;7.26;64.82
67931;BME280;63902;52.000;5.954;2023-04-15T00:56:19;100483.38;;;7.24;64.58
67931;BME280;63902;52.000;5.954;2023-04-15T00:57:21;100473.25;;;7.12;64.35
67931;BME280;63902;52.000;5.954;2023-04-15T00:58:22;100452.41;;;7.03;64.48
67931;BME280;63902;52.000;5.954;2023-04-15T00:59:23;100483.59;;;7.18;64.33
67931;BME280;63902;52.000;5.954;2023-04-15T01:00:24;100470.72;;;7.09;64.65
67931;BME280;63902;52.000;5.954;2023-04-15T01:01:25;100485.41;;;7.16;64.83
67931;BME280;63902;52.000;5.954;2023-04-15T01:02:26;100485.41;;;7.16;65.01
67931;BME280;63902;52.000;5.954;2023-04-15T01:03:26;100481.94;;;7.14;65.24
67931;BME280;63902;52.000;5.954;2023-04-15T01:04:29;100486.25;;;7.16;64.90
67931;BME280;63902;52.000;5.954;2023-04-15T01:05:29;100482.75;;;7.16;65.08
67931;BME280;63902;52.000;5.954;2023-04-15T01:06:30;100481.94;;;7.14;64.89
67931;BME280;63902;52.000;5.954;2023-04-15T01:07:31;100487.28;;;7.12;65.33
67931;BME280;63902;52.000;5.954;2023-04-15T01:08:31;100481.25;;;7.09;66.11
67931;BME280;63902;52.000;5.954;2023-04-15T01:09:32;100485.41;;;7.16;67.00
67931;BME280;63902;52.000;5.954;2023-04-15T01:10:32;100478.31;;;7.18;65.76
67931;BME280;63902;52.000;5.954;2023-04-15T01:11:33;100487.91;;;7.21;65.40
67931;BME280;63902;52.000;5.954;2023-04-15T01:12:34;100484.41;;;7.20;65.98
67931;BME280;63902;52.000;5.954;2023-04-15T01:13:35;100480.19;;;7.14;65.51
67931;BME280;63902;52.000;5.954;2023-04-15T01:14:36;100460.31;;;7.03;65.50
67931;BME280;63902;52.000;5.954;2023-04-15T01:15:38;100480.13;;;7.16;65.42
67931;BME280;63902;52.000;5.954;2023-04-15T01:16:39;100469.91;;;7.05;65.64
67931;BME280;63902;52.000;5.954;2023-04-15T01:17:39;100487.22;;;7.14;65.98
67931;BME280;63902;52.000;5.954;2023-04-15T01:18:40;100489.84;;;7.14;65.74
67931;BME280;63902;52.000;5.954;2023-04-15T01:19:41;100491.59;;;7.15;65.87
67931;BME280;63902;52.000;5.954;2023-04-15T01:20:41;100482.00;;;7.12;65.48
67931;BME280;63902;52.000;5.954;2023-04-15T01:21:42;100485.38;;;7.17;66.20
67931;BME280;63902;52.000;5.954;2023-04-15T01:22:43;100481.94;;;7.14;65.89
67931;BME280;63902;52.000;5.954;2023-04-15T01:23:46;100492.41;;;7.17;66.91
67931;BME280;63902;52.000;5.954;2023-04-15T01:24:54;100491.53;;;7.16;68.28
67931;BME280;63902;52.000;5.954;2023-04-15T01:26:00;100491.41;;;7.21;67.43
67931;BME280;63902;52.000;5.954;2023-04-15T01:27:01;100462.97;;;7.03;66.00
67931;BME280;63902;52.000;5.954;2023-04-15T01:28:02;100491.44;;;7.20;65.95
67931;BME280;63902;52.000;5.954;2023-04-15T01:29:02;100488.03;;;7.16;65.88
67931;BME280;63902;52.000;5.954;2023-04-15T01:30:04;100478.53;;;7.10;66.06
67931;BME280;63902;52.000;5.954;2023-04-15T01:31:05;100489.06;;;7.12;65.77
67931;BME280;63902;52.000;5.954;2023-04-15T01:32:06;100490.88;;;7.10;65.99
67931;BME280;63902;52.000;5.954;2023-04-15T01:33:06;100484.78;;;7.08;66.29
67931;BME280;63902;52.000;5.954;2023-04-15T01:34:07;100487.41;;;7.08;66.85
67931;BME280;63902;52.000;5.954;2023-04-15T01:35:08;100488.22;;;7.11;69.10
67931;BME280;63902;52.000;5.954;2023-04-15T01:36:09;100490.69;;;7.16;66.83
67931;BME280;63902;52.000;5.954;2023-04-15T01:37:10;100486.13;;;7.21;68.01
67931;BME280;63902;52.000;5.954;2023-04-15T01:38:10;100480.03;;;7.19;66.65
67931;BME280;63902;52.000;5.954;2023-04-15T01:39:11;100481.81;;;7.18;67.20
67931;BME280;63902;52.000;5.954;2023-04-15T01:40:11;100484.34;;;7.22;67.65
67931;BME280;63902;52.000;5.954;2023-04-15T01:41:13;100483.34;;;7.26;67.30
67931;BME280;63902;52.000;5.954;2023-04-15T01:42:14;100489.56;;;7.23;66.47
67931;BME280;63902;52.000;5.954;2023-04-15T01:43:14;100489.72;;;7.18;66.79
67931;BME280;63902;52.000;5.954;2023-04-15T01:44:15;100488.97;;;7.15;67.17
67931;BME280;63902;52.000;5.954;2023-04-15T01:45:15;100487.19;;;7.15;67.17
67931;BME280;63902;52.000;5.954;2023-04-15T01:46:16;100492.50;;;7.14;66.59
67931;BME280;63902;52.000;5.954;2023-04-15T01:47:16;100488.25;;;7.10;66.73
67931;BME280;63902;52.000;5.954;2023-04-15T01:48:17;100482.22;;;7.06;67.18
67931;BME280;63902;52.000;5.954;2023-04-15T01:49:17;100480.53;;;7.04;67.07
67931;BME280;63902;52.000;5.954;2023-04-15T01:50:18;100491.69;;;7.12;67.07
67931;BME280;63902;52.000;5.954;2023-04-15T01:51:18;100492.59;;;7.11;67.05
67931;BME280;63902;52.000;5.954;2023-04-15T01:52:19;100477.06;;;7.02;67.09
67931;BME280;63902;52.000;5.954;2023-04-15T01:53:19;100494.38;;;7.10;67.09
67931;BME280;63902;52.000;5.954;2023-04-15T01:54:20;100480.66;;;6.99;67.06
67931;BME280;63902;52.000;5.954;2023-04-15T01:55:20;100495.34;;;7.08;67.46
67931;BME280;63902;52.000;5.954;2023-04-15T01:56:22;100478.88;;;7.00;67.25
67931;BME280;63902;52.000;5.954;2023-04-15T01:57:23;100492.66;;;7.09;67.42
67931;BME280;63902;52.000;5.954;2023-04-15T01:58:23;100490.91;;;7.08;67.22
67931;BME280;63902;52.000;5.954;2023-04-15T01:59:24;100477.16;;;6.99;68.94
67931;BME280;63902;52.000;5.954;2023-04-15T02:00:24;100488.28;;;7.08;68.24
67931;BME280;63902;52.000;5.954;2023-04-15T02:01:25;100489.09;;;7.10;67.73
67931;BME280;63902;52.000;5.954;2023-04-15T02:02:25;100491.72;;;7.10;68.20
67931;BME280;63902;52.000;5.954;2023-04-15T02:03:27;100476.94;;;7.06;68.06
67931;BME280;63902;52.000;5.954;2023-04-15T02:04:28;100486.34;;;7.13;68.88
67931;BME280;63902;52.000;5.954;2023-04-15T02:05:28;100495.13;;;7.14;67.71
67931;BME280;63902;52.000;5.954;2023-04-15T02:06:28;100484.56;;;7.14;67.91
67931;BME280;63902;52.000;5.954;2023-04-15T02:07:29;100496.00;;;7.14;67.65
67931;BME280;63902;52.000;5.954;2023-04-15T02:08:29;100473.72;;;6.97;68.19
67931;BME280;63902;52.000;5.954;2023-04-15T02:09:30;100493.50;;;7.10;68.26
67931;BME280;63902;52.000;5.954;2023-04-15T02:10:30;100486.63;;;7.06;68.01
67931;BME280;63902;52.000;5.954;2023-04-15T02:11:32;100465.91;;;6.93;67.56
67931;BME280;63902;52.000;5.954;2023-04-15T02:12:33;100484.88;;;7.05;67.92
67931;BME280;63902;52.000;5.954;2023-04-15T02:13:33;100499.00;;;7.04;68.07
67931;BME280;63902;52.000;5.954;2023-04-15T02:14:34;100499.94;;;7.01;68.05
67931;BME280;63902;52.000;5.954;2023-04-15T02:15:34;100498.16;;;7.02;68.02
67931;BME280;63902;52.000;5.954;2023-04-15T02:16:35;100497.25;;;7.03;68.52
67931;BME280;63902;52.000;5.954;2023-04-15T02:17:35;100495.44;;;7.05;68.22
67931;BME280;63902;52.000;5.954;2023-04-15T02:18:36;100461.06;;;6.80;67.91
67931;BME280;63902;52.000;5.954;2023-04-15T02:19:36;100498.16;;;7.02;68.07
67931;BME280;63902;52.000;5.954;2023-04-15T02:20:37;100450.59;;;6.78;69.07
67931;BME280;63902;52.000;5.954;2023-04-15T02:21:37;100492.78;;;7.05;68.38
67931;BME280;63902;52.000;5.954;2023-04-15T02:22:38;100502.34;;;7.09;68.54
67931;BME280;63902;52.000;5.954;2023-04-15T02:23:38;100500.59;;;7.08;68.25
67931;BME280;63902;52.000;5.954;2023-04-15T02:24:39;100504.19;;;7.05;68.06
67931;BME280;63902;52.000;5.954;2023-04-15T02:25:39;100508.69;;;7.03;68.50
67931;BME280;63902;52.000;5.954;2023-04-15T02:26:41;100509.56;;;7.02;68.64
67931;BME280;63902;52.000;5.954;2023-04-15T02:27:41;100501.91;;;6.94;68.34
67931;BME280;63902;52.000;5.954;2023-04-15T02:28:42;100513.16;;;7.00;69.81
67931;BME280;63902;52.000;5.954;2023-04-15T02:29:43;100507.03;;;6.99;69.10
67931;BME280;63902;52.000;5.954;2023-04-15T02:30:46;100496.78;;;6.90;68.72
67931;BME280;63902;52.000;5.954;2023-04-15T02:31:47;100514.13;;;6.97;68.49
67931;BME280;63902;52.000;5.954;2023-04-15T02:32:47;100508.19;;;6.90;68.45
67931;BME280;63902;52.000;5.954;2023-04-15T02:33:48;100477.22;;;6.69;68.64
67931;BME280;63902;52.000;5.954;2023-04-15T02:34:48;100516.94;;;6.92;68.90
67931;BME280;63902;52.000;5.954;2023-04-15T02:35:48;100514.38;;;6.89;68.87
67931;BME280;63902;52.000;5.954;2023-04-15T02:36:49;100508.47;;;6.81;70.02
67931;BME280;63902;52.000;5.954;2023-04-15T02:37:49;100489.50;;;6.70;70.16
67931;BME280;63902;52.000;5.954;2023-04-15T02:38:50;100507.66;;;6.79;69.76
67931;BME280;63902;52.000;5.954;2023-04-15T02:39:50;100516.38;;;6.81;70.19
67931;BME280;63902;52.000;5.954;2023-04-15T02:40:51;100519.91;;;6.80;70.04
67931;BME280;63902;52.000;5.954;2023-04-15T02:41:53;100517.28;;;6.80;69.79
67931;BME280;63902;52.000;5.954;2023-04-15T02:42:53;100515.56;;;6.79;70.17
67931;BME280;63902;52.000;5.954;2023-04-15T02:43:54;100521.66;;;6.81;70.25
67931;BME280;63902;52.000;5.954;2023-04-15T02:44:54;100524.41;;;6.78;69.78
67931;BME280;63902;52.000;5.954;2023-04-15T02:45:55;100521.84;;;6.75;70.38
67931;BME280;63902;52.000;5.954;2023-04-15T02:46:55;100515.75;;;6.73;70.86
67931;BME280;63902;52.000;5.954;2023-04-15T02:47:56;100527.13;;;6.75;70.32
67931;BME280;63902;52.000;5.954;2023-04-15T02:48:56;100528.06;;;6.72;69.63
67931;BME280;63902;52.000;5.954;2023-04-15T02:49:57;100514.28;;;6.63;70.17
67931;BME280;63902;52.000;5.954;2023-04-15T02:51:10;100530.00;;;6.66;70.10
67931;BME280;63902;52.000;5.954;2023-04-15T02:52:11;100524.84;;;6.63;70.12
67931;BME280;63902;52.000;5.954;2023-04-15T02:53:11;100525.78;;;6.60;70.24
67931;BME280;63902;52.000;5.954;2023-04-15T02:54:12;100525.88;;;6.57;70.21
67931;BME280;63902;52.000;5.954;2023-04-15T02:55:12;100528.50;;;6.57;70.81
67931;BME280;63902;52.000;5.954;2023-04-15T02:56:13;100502.63;;;6.42;72.76
67931;BME280;63902;52.000;5.954;2023-04-15T02:57:15;100528.47;;;6.59;71.64
67931;BME280;63902;52.000;5.954;2023-04-15T02:58:15;100530.25;;;6.58;70.98
67931;BME280;63902;52.000;5.954;2023-04-15T02:59:15;100532.97;;;6.55;71.81
67931;BME280;63902;52.000;5.954;2023-04-15T03:00:16;100525.03;;;6.57;71.46
67931;BME280;63902;52.000;5.954;2023-04-15T03:01:17;100535.53;;;6.58;70.89
67931;BME280;63902;52.000;5.954;2023-04-15T03:02:17;100534.72;;;6.55;70.50
67931;BME280;63902;52.000;5.954;2023-04-15T03:03:18;100504.56;;;6.35;71.48
67931;BME280;63902;52.000;5.954;2023-04-15T03:04:18;100518.47;;;6.40;71.34
67931;BME280;63902;52.000;5.954;2023-04-15T03:05:19;100523.56;;;6.46;71.33
67931;BME280;63902;52.000;5.954;2023-04-15T03:06:19;100530.56;;;6.47;72.80
67931;BME280;63902;52.000;5.954;2023-04-15T03:07:19;100527.94;;;6.47;71.93
67931;BME280;63902;52.000;5.954;2023-04-15T03:08:20;100524.56;;;6.42;71.33
67931;BME280;63902;52.000;5.954;2023-04-15T03:09:20;100531.59;;;6.42;71.41
67931;BME280;63902;52.000;5.954;2023-04-15T03:10:21;100525.53;;;6.38;71.63
67931;BME280;63902;52.000;5.954;2023-04-15T03:11:21;100528.25;;;6.35;71.36
67931;BME280;63902;52.000;5.954;2023-04-15T03:12:23;100531.81;;;6.34;71.78
67931;BME280;63902;52.000;5.954;2023-04-15T03:13:24;100522.25;;;6.30;71.69
67931;BME280;63902;52.000;5.954;2023-04-15T03:14:24;100514.50;;;6.25;71.76
67931;BME280;63902;52.000;5.954;2023-04-15T03:15:25;100532.78;;;6.30;71.76
67931;BME280;63902;52.000;5.954;2023-04-15T03:16:25;100529.31;;;6.30;71.56
67931;BME280;63902;52.000;5.954;2023-04-15T03:17:26;100533.72;;;6.29;71.89
67931;BME280;63902;52.000;5.954;2023-04-15T03:18:26;100538.06;;;6.30;72.20
67931;BME280;63902;52.000;5.954;2023-04-15T03:19:26;100521.47;;;6.28;72.61
67931;BME280;63902;52.000;5.954;2023-04-15T03:20:27;100529.19;;;6.34;71.75
67931;BME280;63902;52.000;5.954;2023-04-15T03:21:27;100513.75;;;6.22;71.92
67931;BME280;63902;52.000;5.954;2023-04-15T03:22:28;100507.72;;;6.17;71.52
67931;BME280;63902;52.000;5.954;2023-04-15T03:23:30;100538.03;;;6.32;72.33
67931;BME280;63902;52.000;5.954;2023-04-15T03:24:31;100535.47;;;6.28;72.15
67931;BME280;63902;52.000;5.954;2023-04-15T03:25:31;100536.44;;;6.26;73.03
67931;BME280;63902;52.000;5.954;2023-04-15T03:26:31;100528.56;;;6.24;73.05
67931;BME280;63902;52.000;5.954;2023-04-15T03:27:33;100532.09;;;6.25;72.82
67931;BME280;63902;52.000;5.954;2023-04-15T03:28:34;100533.06;;;6.21;72.52
67931;BME280;63902;52.000;5.954;2023-04-15T03:29:34;100541.81;;;6.21;72.91
67931;BME280;63902;52.000;5.954;2023-04-15T03:30:35;100546.22;;;6.21;75.40
67931;BME280;63902;52.000;5.954;2023-04-15T03:31:35;100538.47;;;6.16;74.23
67931;BME280;63902;52.000;5.954;2023-04-15T03:32:36;100538.41;;;6.18;74.04
67931;BME280;63902;52.000;5.954;2023-04-15T03:33:36;100539.34;;;6.17;73.80
67931;BME280;63902;52.000;5.954;2023-04-15T03:34:37;100540.31;;;6.13;74.41
67931;BME280;63902;52.000;5.954;2023-04-15T03:35:37;100549.94;;;6.14;73.83
67931;BME280;63902;52.000;5.954;2023-04-15T03:36:38;100549.97;;;6.12;73.32
67931;BME280;63902;52.000;5.954;2023-04-15T03:37:38;100537.81;;;6.08;73.29
67931;BME280;63902;52.000;5.954;2023-04-15T03:38:38;100549.19;;;6.09;73.03
67931;BME280;63902;52.000;5.954;2023-04-15T03:39:39;100546.59;;;6.07;74.27
67931;BME280;63902;52.000;5.954;2023-04-15T03:40:40;100552.72;;;6.08;73.35
67931;BME280;63902;52.000;5.954;2023-04-15T03:41:40;100535.50;;;5.96;73.27
67931;BME280;63902;52.000;5.954;2023-04-15T03:42:42;100542.44;;;5.98;73.63
67931;BME280;63902;52.000;5.954;2023-04-15T03:43:42;100537.25;;;5.95;73.77
67931;BME280;63902;52.000;5.954;2023-04-15T03:44:43;100533.84;;;5.90;73.50
67931;BME280;63902;52.000;5.954;2023-04-15T03:45:43;100559.94;;;6.01;75.30
67931;BME280;63902;52.000;5.954;2023-04-15T03:46:44;100549.41;;;6.01;74.11
67931;BME280;63902;52.000;5.954;2023-04-15T03:47:44;100536.56;;;5.87;74.02
67931;BME280;63902;52.000;5.954;2023-04-15T03:48:45;100553.84;;;5.99;74.59
67931;BME280;63902;52.000;5.954;2023-04-15T03:49:46;100553.91;;;5.96;74.36
67931;BME280;63902;52.000;5.954;2023-04-15T03:50:46;100550.41;;;5.97;74.31
67931;BME280;63902;52.000;5.954;2023-04-15T03:51:47;100560.09;;;5.95;73.92
67931;BME280;63902;52.000;5.954;2023-04-15T03:52:47;100557.53;;;5.92;73.69
67931;BME280;63902;52.000;5.954;2023-04-15T03:53:48;100556.75;;;5.88;74.08
67931;BME280;63902;52.000;5.954;2023-04-15T03:54:48;100559.31;;;5.90;74.05
67931;BME280;63902;52.000;5.954;2023-04-15T03:55:49;100565.53;;;5.87;73.75
67931;BME280;63902;52.000;5.954;2023-04-15T03:56:49;100569.94;;;5.85;73.62
67931;BME280;63902;52.000;5.954;2023-04-15T03:57:51;100564.75;;;5.83;74.11
67931;BME280;63902;52.000;5.954;2023-04-15T03:58:51;100563.88;;;5.83;74.24
67931;BME280;63902;52.000;5.954;2023-04-15T03:59:52;100568.31;;;5.81;74.21
67931;BME280;63902;52.000;5.954;2023-04-15T04:00:52;100560.41;;;5.81;74.28
67931;BME280;63902;52.000;5.954;2023-04-15T04:01:53;100552.72;;;5.73;74.48
67931;BME280;63902;52.000;5.954;2023-04-15T04:02:53;100560.41;;;5.81;74.56
67931;BME280;63902;52.000;5.954;2023-04-15T04:03:54;100557.03;;;5.76;74.55
67931;BME280;63902;52.000;5.954;2023-04-15T04:04:54;100569.22;;;5.80;74.71
67931;BME280;63902;52.000;5.954;2023-04-15T04:05:55;100523.41;;;5.53;74.81
67931;BME280;63902;52.000;5.954;2023-04-15T04:06:55;100555.25;;;5.76;76.10
67931;BME280;63902;52.000;5.954;2023-04-15T04:07:56;100565.69;;;5.81;74.94
67931;BME280;63902;52.000;5.954;2023-04-15T04:08:56;100569.22;;;5.80;75.42
67931;BME280;63902;52.000;5.954;2023-04-15T04:09:57;100573.59;;;5.81;75.24
67931;BME280;63902;52.000;5.954;2023-04-15T04:10:57;100569.22;;;5.80;75.38
67931;BME280;63902;52.000;5.954;2023-04-15T04:11:58;100571.81;;;5.81;77.08
67931;BME280;63902;52.000;5.954;2023-04-15T04:12:59;100579.69;;;5.83;76.26
67931;BME280;63902;52.000;5.954;2023-04-15T04:14:00;100574.50;;;5.80;76.91
67931;BME280;63902;52.000;5.954;2023-04-15T04:15:00;100531.22;;;5.57;75.94
67931;BME280;63902;52.000;5.954;2023-04-15T04:16:01;100572.81;;;5.76;75.69
67931;BME280;63902;52.000;5.954;2023-04-15T04:17:01;100578.16;;;5.73;76.13
67931;BME280;63902;52.000;5.954;2023-04-15T04:18:02;100579.00;;;5.75;76.98
67931;BME280;63902;52.000;5.954;2023-04-15T04:19:03;100567.91;;;5.62;77.07
67931;BME280;63902;52.000;5.954;2023-04-15T04:20:04;100585.06;;;5.77;78.12
67931;BME280;63902;52.000;5.954;2023-04-15T04:21:05;100585.06;;;5.78;77.58
67931;BME280;63902;52.000;5.954;2023-04-15T04:22:05;100583.34;;;5.76;76.68
67931;BME280;63902;52.000;5.954;2023-04-15T04:23:06;100573.00;;;5.70;76.69
67931;BME280;63902;52.000;5.954;2023-04-15T04:24:06;100594.78;;;5.75;76.43
67931;BME280;63902;52.000;5.954;2023-04-15T04:25:08;100592.25;;;5.72;76.22
67931;BME280;63902;52.000;5.954;2023-04-15T04:26:08;100581.78;;;5.69;78.40
67931;BME280;63902;52.000;5.954;2023-04-15T04:27:09;100594.81;;;5.73;77.29
67931;BME280;63902;52.000;5.954;2023-04-15T04:28:11;100593.19;;;5.69;78.41
67931;BME280;63902;52.000;5.954;2023-04-15T04:29:11;100597.50;;;5.72;77.31
67931;BME280;63902;52.000;5.954;2023-04-15T04:30:12;100592.25;;;5.72;76.48
67931;BME280;63902;52.000;5.954;2023-04-15T04:31:12;100598.47;;;5.68;76.04
67931;BME280;63902;52.000;5.954;2023-04-15T04:32:13;100600.31;;;5.64;76.15
67931;BME280;63902;52.000;5.954;2023-04-15T04:33:13;100609.06;;;5.65;76.47
67931;BME280;63902;52.000;5.954;2023-04-15T04:34:14;100595.97;;;5.63;76.61
67931;BME280;63902;52.000;5.954;2023-04-15T04:35:14;100604.66;;;5.65;76.29
67931;BME280;63902;52.000;5.954;2023-04-15T04:36:15;100589.13;;;5.54;77.11
67931;BME280;63902;52.000;5.954;2023-04-15T04:37:15;100586.50;;;5.54;76.86
67931;BME280;63902;52.000;5.954;2023-04-15T04:38:15;100563.22;;;5.39;76.78
67931;BME280;63902;52.000;5.954;2023-04-15T04:39:16;100600.25;;;5.66;76.55
67931;BME280;63902;52.000;5.954;2023-04-15T04:40:16;100604.66;;;5.65;76.61
67931;BME280;63902;52.000;5.954;2023-04-15T04:41:17;100602.25;;;5.57;76.50
67931;BME280;63902;52.000;5.954;2023-04-15T04:42:17;100616.19;;;5.59;76.49
67931;BME280;63902;52.000;5.954;2023-04-15T04:43:19;100585.97;;;5.40;76.56
67931;BME280;63902;52.000;5.954;2023-04-15T04:44:20;100618.06;;;5.54;76.60
67931;BME280;63902;52.000;5.954;2023-04-15T04:45:20;100620.78;;;5.51;76.80
67931;BME280;63902;52.000;5.954;2023-04-15T04:46:21;100619.06;;;5.50;76.77
67931;BME280;63902;52.000;5.954;2023-04-15T04:47:21;100624.31;;;5.50;77.70
67931;BME280;63902;52.000;5.954;2023-04-15T04:48:22;100629.59;;;5.50;77.74
67931;BME280;63902;52.000;5.954;2023-04-15T04:49:22;100626.97;;;5.49;76.95
67931;BME280;63902;52.000;5.954;2023-04-15T04:50:23;100625.25;;;5.48;77.55
67931;BME280;63902;52.000;5.954;2023-04-15T04:51:23;100632.22;;;5.49;77.10
67931;BME280;63902;52.000;5.954;2023-04-15T04:52:24;100617.47;;;5.43;78.50
67931;BME280;63902;52.000;5.954;2023-04-15T04:53:24;100607.13;;;5.35;77.77
67931;BME280;63902;52.000;5.954;2023-04-15T04:54:25;100630.56;;;5.46;77.52
67931;BME280;63902;52.000;5.954;2023-04-15T04:55:25;100631.38;;;5.48;77.43
67931;BME280;63902;52.000;5.954;2023-04-15T04:56:26;100636.69;;;5.47;77.11
67931;BME280;63902;52.000;5.954;2023-04-15T04:57:26;100626.25;;;5.44;77.26
67931;BME280;63902;52.000;5.954;2023-04-15T04:58:28;100627.03;;;5.47;78.21
67931;BME280;63902;52.000;5.954;2023-04-15T04:59:28;100637.63;;;5.44;77.72
67931;BME280;63902;52.000;5.954;2023-04-15T05:00:29;100641.94;;;5.47;77.60
67931;BME280;63902;52.000;5.954;2023-04-15T05:01:29;100598.66;;;5.23;78.24
67931;BME280;63902;52.000;5.954;2023-04-15T05:02:30;100636.84;;;5.39;77.58
67931;BME280;63902;52.000;5.954;2023-04-15T05:03:30;100638.56;;;5.40;77.59
67931;BME280;63902;52.000;5.954;2023-04-15T05:04:31;100645.53;;;5.43;78.08
67931;BME280;63902;52.000;5.954;2023-04-15T05:05:31;100648.16;;;5.43;78.09
67931;BME280;63902;52.000;5.954;2023-04-15T05:06:32;100651.66;;;5.43;78.09
67931;BME280;63902;52.000;5.954;2023-04-15T05:07:33;100648.16;;;5.43;78.41
67931;BME280;63902;52.000;5.954;2023-04-15T05:08:33;100632.47;;;5.39;81.50
67931;BME280;63902;52.000;5.954;2023-04-15T05:09:34;100648.06;;;5.47;79.65
67931;BME280;63902;52.000;5.954;2023-04-15T05:10:35;100649.78;;;5.48;80.41
67931;BME280;63902;52.000;5.954;2023-04-15T05:11:35;100647.22;;;5.45;80.73
67931;BME280;63902;52.000;5.954;2023-04-15T05:12:35;100655.88;;;5.52;79.64
67931;BME280;63902;52.000;5.954;2023-04-15T05:13:37;100653.25;;;5.50;78.87
67931;BME280;63902;52.000;5.954;2023-04-15T05:14:38;100656.81;;;5.49;78.81
67931;BME280;63902;52.000;5.954;2023-04-15T05:15:38;100650.78;;;5.44;79.16
67931;BME280;63902;52.000;5.954;2023-04-15T05:16:39;100617.97;;;5.22;78.96
67931;BME280;63902;52.000;5.954;2023-04-15T05:17:39;100663.00;;;5.45;78.28
67931;BME280;63902;52.000;5.954;2023-04-15T05:18:40;100656.06;;;5.43;78.31
67931;BME280;63902;52.000;5.954;2023-04-15T05:19:40;100658.75;;;5.39;79.38
67931;BME280;63902;52.000;5.954;2023-04-15T05:20:41;100669.13;;;5.46;79.20
67931;BME280;63902;52.000;5.954;2023-04-15T05:21:41;100664.78;;;5.45;79.72